Time;durP1;ratioP1;P1;durP2;ratioP2;P2;SDS_P1;SDS_P2;PMS_P1;PMS_P2;Temp;Humidity;BMP_temperature;BMP_pressure;BME280_temperature;BME280_humidity;BME280_pressure;Samples;Min_cycle;Max_cycle;Signal;HPM_P1;HPM_P2
2021/05/27 00:00:44;;;;;;;1.38;0.70;;;10.50;99.90;;;;;;4996720;28;20082;-80
2021/05/27 00:03:10;;;;;;;2.63;0.93;;;10.50;99.90;;;;;;4996294;28;20069;-79
2021/05/27 00:05:38;;;;;;;2.13;0.80;;;10.40;99.90;;;;;;4996820;28;20082;-79
2021/05/27 00:08:05;;;;;;;1.92;0.75;;;10.50;99.90;;;;;;4996664;28;20611;-79
2021/05/27 00:10:33;;;;;;;2.40;0.90;;;10.50;99.90;;;;;;4989330;28;20070;-79
2021/05/27 00:13:01;;;;;;;1.67;0.80;;;10.50;99.90;;;;;;4996205;28;20130;-80
2021/05/27 00:15:31;;;;;;;3.05;0.90;;;10.50;99.90;;;;;;4996235;28;20197;-79
2021/05/27 00:17:58;;;;;;;2.58;0.90;;;10.40;99.90;;;;;;4996647;28;20082;-78
2021/05/27 00:20:25;;;;;;;2.08;0.82;;;10.50;99.90;;;;;;4996074;28;20110;-79
2021/05/27 00:22:53;;;;;;;2.55;0.90;;;10.50;99.90;;;;;;4996025;28;20073;-78
2021/05/27 00:25:20;;;;;;;2.35;1.00;;;10.40;99.90;;;;;;4995559;28;20082;-80
2021/05/27 00:27:48;;;;;;;2.28;0.80;;;10.40;99.90;;;;;;4995846;28;20141;-78
2021/05/27 00:30:17;;;;;;;3.00;0.90;;;10.50;99.90;;;;;;4995930;28;20146;-79
2021/05/27 00:32:44;;;;;;;2.25;0.90;;;10.40;99.90;;;;;;4995726;28;20082;-79
2021/05/27 00:35:12;;;;;;;1.73;0.80;;;10.40;99.90;;;;;;4995913;28;20074;-78
2021/05/27 00:37:40;;;;;;;2.20;0.80;;;10.40;99.90;;;;;;4995790;28;20050;-78
2021/05/27 00:40:11;;;;;;;2.10;0.88;;;10.40;99.90;;;;;;4995375;28;20522;-79
2021/05/27 00:42:38;;;;;;;1.83;0.80;;;10.40;99.90;;;;;;4995945;28;20063;-79
2021/05/27 00:45:08;;;;;;;2.60;1.00;;;10.40;99.90;;;;;;4995543;28;20137;-79
2021/05/27 00:47:35;;;;;;;2.63;0.93;;;10.40;99.90;;;;;;4989028;28;20133;-78
2021/05/27 00:50:03;;;;;;;2.10;0.80;;;10.40;99.90;;;;;;4995376;28;20500;-78
2021/05/27 00:52:31;;;;;;;2.50;0.93;;;10.40;99.90;;;;;;4977899;28;20089;-79
2021/05/27 00:54:59;;;;;;;2.40;0.90;;;10.40;99.90;;;;;;4995447;28;20556;-79
2021/05/27 00:57:33;;;;;;;2.25;0.90;;;10.40;99.90;;;;;;4995304;28;20113;-79
2021/05/27 01:00:01;;;;;;;2.27;0.90;;;10.30;99.90;;;;;;4995305;28;20054;-78
2021/05/27 01:02:28;;;;;;;2.40;0.95;;;10.30;99.90;;;;;;4977605;28;20126;-79
2021/05/27 01:04:55;;;;;;;3.08;0.90;;;10.30;99.90;;;;;;4995558;28;20555;-78
2021/05/27 01:07:23;;;;;;;2.60;0.90;;;10.40;99.90;;;;;;4995475;28;20085;-78
2021/05/27 01:09:50;;;;;;;1.85;0.90;;;10.40;99.90;;;;;;4995094;28;20060;-78
2021/05/27 01:12:16;;;;;;;2.13;0.82;;;10.30;99.90;;;;;;4994847;28;20054;-79
2021/05/27 01:17:28;;;;;;;1.65;0.93;;;10.20;99.90;;;;;;4995718;28;20109;-77
2021/05/27 01:19:56;;;;;;;1.88;0.90;;;10.40;99.90;;;;;;4995206;28;20085;-78
2021/05/27 01:22:24;;;;;;;1.95;0.80;;;10.30;99.90;;;;;;4994962;28;20074;-77
2021/05/27 01:24:51;;;;;;;2.90;1.10;;;10.30;99.90;;;;;;4995077;28;20047;-78
2021/05/27 01:27:18;;;;;;;3.08;0.90;;;10.30;99.90;;;;;;4995074;28;20054;-78
2021/05/27 01:29:53;;;;;;;2.63;1.00;;;10.30;99.90;;;;;;4995109;28;20137;-78
2021/05/27 01:32:20;;;;;;;2.28;0.85;;;10.30;99.90;;;;;;4994870;28;20165;-77
2021/05/27 01:34:47;;;;;;;2.33;1.00;;;10.20;99.90;;;;;;4994925;28;20159;-77
2021/05/27 01:37:14;;;;;;;2.78;1.00;;;10.20;99.90;;;;;;4961136;28;20054;-78
2021/05/27 01:39:45;;;;;;;2.83;0.98;;;10.30;99.90;;;;;;4995062;28;20074;-78
2021/05/27 01:42:12;;;;;;;1.85;0.90;;;10.10;99.90;;;;;;4977305;28;20554;-78
2021/05/27 01:44:40;;;;;;;2.00;0.90;;;10.20;99.90;;;;;;4994684;28;20129;-78
2021/05/27 01:47:07;;;;;;;2.00;1.05;;;10.30;99.90;;;;;;4993827;28;20082;-77
2021/05/27 01:49:33;;;;;;;2.85;1.10;;;10.20;99.90;;;;;;4976548;28;20046;-79
2021/05/27 01:52:00;;;;;;;4.00;0.98;;;10.20;99.90;;;;;;4999791;28;20085;-78
2021/05/27 01:54:27;;;;;;;2.35;0.90;;;10.30;99.90;;;;;;4994296;28;20574;-79
2021/05/27 01:56:54;;;;;;;3.03;1.00;;;10.30;99.90;;;;;;4994503;28;20507;-79
2021/05/27 01:59:21;;;;;;;2.75;0.90;;;10.10;99.90;;;;;;4994179;28;20138;-78
2021/05/27 02:01:48;;;;;;;2.45;0.95;;;10.20;99.90;;;;;;4994168;28;20046;-79
2021/05/27 02:04:15;;;;;;;1.88;1.00;;;10.20;99.90;;;;;;4994094;28;20137;-79
2021/05/27 02:06:41;;;;;;;2.45;1.10;;;10.20;99.90;;;;;;4994025;28;20129;-79
2021/05/27 02:09:09;;;;;;;2.08;1.05;;;10.10;99.90;;;;;;4994508;28;20082;-78
2021/05/27 02:11:38;;;;;;;2.53;0.95;;;10.10;99.90;;;;;;4984987;28;20488;-79
2021/05/27 02:14:07;;;;;;;2.78;0.90;;;10.10;99.90;;;;;;4994103;28;20058;-78
2021/05/27 02:16:35;;;;;;;1.95;0.90;;;10.10;99.90;;;;;;4987239;28;20077;-78
2021/05/27 02:19:02;;;;;;;2.95;0.80;;;10.10;99.90;;;;;;4994125;28;20085;-78
2021/05/27 02:21:29;;;;;;;2.30;0.90;;;10.10;99.90;;;;;;4994132;28;20104;-79
2021/05/27 02:23:59;;;;;;;1.48;0.88;;;10.10;99.90;;;;;;4976518;28;20140;-79
2021/05/27 02:26:29;;;;;;;3.05;1.10;;;10.10;99.90;;;;;;4993973;28;20061;-78
2021/05/27 02:28:56;;;;;;;2.30;1.00;;;10.10;99.90;;;;;;4993838;28;20054;-77
2021/05/27 02:31:24;;;;;;;2.47;0.90;;;10.20;99.90;;;;;;4993446;28;20146;-78
2021/05/27 02:33:52;;;;;;;2.03;0.90;;;10.20;99.90;;;;;;4993519;28;20081;-78
2021/05/27 02:36:18;;;;;;;1.98;1.00;;;10.10;99.90;;;;;;4994131;28;20164;-80
2021/05/27 02:38:45;;;;;;;2.65;1.08;;;10.10;99.90;;;;;;4993975;28;20156;-78
2021/05/27 02:41:12;;;;;;;2.65;1.10;;;10.20;99.90;;;;;;4993975;28;20081;-78
2021/05/27 02:43:39;;;;;;;3.42;1.30;;;10.20;99.90;;;;;;4960566;28;20046;-78
2021/05/27 02:46:06;;;;;;;2.60;1.10;;;10.10;99.90;;;;;;4993493;28;20551;-78
2021/05/27 02:48:34;;;;;;;2.20;1.05;;;10.10;99.90;;;;;;4993968;28;20125;-78
2021/05/27 02:51:02;;;;;;;2.92;1.25;;;10.00;99.90;;;;;;4992855;28;20050;-78
2021/05/27 02:53:29;;;;;;;3.17;1.10;;;10.10;99.90;;;;;;4976511;28;20066;-79
2021/05/27 02:55:56;;;;;;;3.00;1.20;;;10.00;99.90;;;;;;4993615;28;20613;-78
2021/05/27 02:58:23;;;;;;;3.03;1.10;;;10.00;99.90;;;;;;4993087;28;20082;-78
2021/05/27 03:00:50;;;;;;;2.50;1.20;;;10.10;99.90;;;;;;4993415;28;20592;-78
2021/05/27 03:03:20;;;;;;;2.47;1.02;;;10.10;99.90;;;;;;4991630;28;20082;-78
2021/05/27 03:05:48;;;;;;;2.58;1.10;;;10.00;99.90;;;;;;4992233;28;20543;-78
2021/05/27 03:08:15;;;;;;;2.88;1.00;;;10.00;99.90;;;;;;4991185;28;20492;-77
2021/05/27 03:10:42;;;;;;;2.53;1.10;;;10.10;99.90;;;;;;4991351;28;20137;-77
2021/05/27 03:13:08;;;;;;;2.88;1.10;;;10.00;99.90;;;;;;4990836;28;20134;-78
2021/05/27 03:15:36;;;;;;;5.70;1.63;;;10.00;99.90;;;;;;4974664;28;20611;-79
2021/05/27 03:18:05;;;;;;;6.13;1.88;;;10.10;99.90;;;;;;4991668;28;20050;-78
2021/05/27 03:20:33;;;;;;;7.43;2.78;;;10.10;99.90;;;;;;4967064;28;20053;-78
2021/05/27 03:23:01;;;;;;;9.25;2.88;;;10.00;99.90;;;;;;4991147;28;20050;-78
2021/05/27 03:25:28;;;;;;;9.68;3.42;;;10.00;99.90;;;;;;4991365;28;20133;-78
2021/05/27 03:27:54;;;;;;;14.05;4.63;;;10.10;99.90;;;;;;4991128;28;20201;-77
2021/05/27 03:30:22;;;;;;;12.20;4.85;;;10.00;99.90;;;;;;4991389;28;21455;-79
2021/05/27 03:32:49;;;;;;;10.23;4.32;;;10.00;99.90;;;;;;4991095;28;20085;-79
2021/05/27 03:35:16;;;;;;;8.40;3.30;;;10.00;99.90;;;;;;4991362;28;20507;-78
2021/05/27 03:37:42;;;;;;;6.40;2.20;;;10.10;99.90;;;;;;4992215;28;20077;-77
2021/05/27 03:40:12;;;;;;;3.75;1.45;;;10.00;99.90;;;;;;4995039;28;20079;-79
2021/05/27 03:42:41;;;;;;;2.75;1.33;;;10.10;99.90;;;;;;4994131;28;20038;-79
2021/05/27 03:45:10;;;;;;;2.13;1.10;;;10.10;99.90;;;;;;4994936;28;20093;-78
2021/05/27 03:47:38;;;;;;;2.20;1.08;;;10.00;99.90;;;;;;4994618;28;20142;-78
2021/05/27 03:50:06;;;;;;;2.97;1.20;;;9.90;99.90;;;;;;4994895;28;20098;-78
2021/05/27 03:52:33;;;;;;;2.88;1.10;;;10.00;99.90;;;;;;4995717;28;20511;-79
2021/05/27 03:55:00;;;;;;;1.90;0.88;;;10.00;99.90;;;;;;5021750;28;20057;-79
2021/05/27 03:57:28;;;;;;;2.70;1.30;;;10.10;99.90;;;;;;5025094;28;20412;-77
2021/05/27 04:02:43;;;;;;;;;;;10.10;99.90;;;;;;5016870;28;20562;-79
2021/05/27 04:07:55;;;;;;;2.90;1.10;;;10.10;99.90;;;;;;5016562;28;20100;-80
2021/05/27 04:10:23;;;;;;;2.83;1.10;;;10.10;99.90;;;;;;5016593;28;20447;-80
2021/05/27 04:12:51;;;;;;;2.75;1.08;;;10.10;99.90;;;;;;5016102;28;20104;-79
2021/05/27 04:15:21;;;;;;;2.45;1.10;;;10.20;99.90;;;;;;5016374;28;20042;-79
2021/05/27 04:17:54;;;;;;;2.83;1.08;;;10.10;99.90;;;;;;5016392;28;20463;-79
2021/05/27 04:20:22;;;;;;;3.60;1.20;;;10.10;99.90;;;;;;5015726;28;20082;-77
2021/05/27 04:22:49;;;;;;;2.92;1.38;;;10.10;99.90;;;;;;5015864;28;20089;-77
2021/05/27 04:25:17;;;;;;;3.20;1.30;;;10.10;99.90;;;;;;5015756;28;20068;-77
2021/05/27 04:27:44;;;;;;;2.65;1.15;;;10.20;99.90;;;;;;5015509;28;20136;-77
2021/05/27 04:30:15;;;;;;;2.47;1.08;;;10.20;99.90;;;;;;5015754;28;20078;-79
2021/05/27 04:32:59;;;;;;;3.53;1.23;;;10.20;99.90;;;;;;5015835;28;20050;-78
2021/05/27 04:35:33;;;;;;;2.65;1.10;;;10.20;99.90;;;;;;5015688;28;20377;-79
2021/05/27 04:38:03;;;;;;;4.68;1.27;;;10.20;99.90;;;;;;5015716;28;20407;-78
2021/05/27 04:40:30;;;;;;;3.75;1.27;;;10.20;99.90;;;;;;5015516;28;20144;-79
2021/05/27 04:42:57;;;;;;;2.42;0.90;;;10.30;99.90;;;;;;5015295;28;20052;-77
2021/05/27 04:45:25;;;;;;;4.15;1.20;;;10.10;99.90;;;;;;5015568;28;20078;-77
2021/05/27 04:47:52;;;;;;;2.50;0.85;;;10.20;99.90;;;;;;5015617;28;20080;-77
2021/05/27 04:50:19;;;;;;;2.72;0.90;;;10.20;99.90;;;;;;5014277;28;20419;-79
2021/05/27 04:52:46;;;;;;;2.35;0.90;;;10.10;99.90;;;;;;5015287;28;20081;-78
2021/05/27 04:55:14;;;;;;;3.33;1.08;;;10.20;99.90;;;;;;5014950;28;20088;-79
2021/05/27 04:57:41;;;;;;;3.85;1.10;;;10.20;99.90;;;;;;4998931;28;20050;-78
2021/05/27 05:00:12;;;;;;;4.78;1.00;;;10.30;99.90;;;;;;4995317;28;20141;-76
2021/05/27 05:02:40;;;;;;;3.03;1.13;;;10.30;99.90;;;;;;4995384;28;20082;-76
2021/05/27 05:05:10;;;;;;;2.40;1.17;;;10.30;99.90;;;;;;4995367;28;20511;-78
2021/05/27 05:07:38;;;;;;;2.30;1.00;;;10.30;99.90;;;;;;4995269;28;20082;-78
2021/05/27 05:10:07;;;;;;;3.20;1.08;;;10.30;99.90;;;;;;4995555;28;20487;-76
2021/05/27 05:12:44;;;;;;;2.83;1.40;;;10.30;99.90;;;;;;4995402;28;20137;-79
2021/05/27 05:15:13;;;;;;;2.08;1.00;;;10.30;99.90;;;;;;4995586;28;20056;-79
2021/05/27 05:17:41;;;;;;;2.15;1.00;;;10.30;99.90;;;;;;4995230;28;20141;-78
2021/05/27 05:20:10;;;;;;;2.75;0.95;;;10.40;99.90;;;;;;4995131;28;20113;-78
2021/05/27 05:22:37;;;;;;;2.97;1.20;;;10.40;99.90;;;;;;4995287;28;20776;-79
2021/05/27 05:25:06;;;;;;;2.72;1.20;;;10.40;99.90;;;;;;4995345;28;20114;-78
2021/05/27 05:27:33;;;;;;;2.65;1.10;;;10.50;99.90;;;;;;4995120;28;20508;-79
2021/05/27 05:29:59;;;;;;;2.97;1.10;;;10.50;99.90;;;;;;4994780;28;20086;-78
2021/05/27 05:32:26;;;;;;;2.70;1.10;;;10.60;99.90;;;;;;4994702;28;20109;-79
2021/05/27 05:34:54;;;;;;;2.85;1.33;;;10.50;99.90;;;;;;4994857;28;20129;-79
2021/05/27 05:37:21;;;;;;;3.17;1.30;;;10.60;99.90;;;;;;4994716;28;20480;-78
2021/05/27 05:39:48;;;;;;;4.05;1.00;;;10.70;99.90;;;;;;4994961;28;20049;-78
2021/05/27 05:42:14;;;;;;;3.50;1.20;;;10.70;99.90;;;;;;4994948;28;20109;-79
2021/05/27 05:44:41;;;;;;;2.92;1.30;;;10.60;99.90;;;;;;4994555;28;20086;-78
2021/05/27 05:47:07;;;;;;;2.58;1.20;;;10.60;99.90;;;;;;4994903;28;20054;-78
2021/05/27 05:49:34;;;;;;;2.15;1.13;;;10.70;99.90;;;;;;4994629;28;20152;-79
2021/05/27 05:52:02;;;;;;;2.88;1.10;;;10.70;99.90;;;;;;4994333;28;20081;-77
2021/05/27 05:54:29;;;;;;;2.75;1.13;;;10.70;99.90;;;;;;4994688;28;20126;-80
2021/05/27 05:56:55;;;;;;;3.80;1.45;;;10.80;99.90;;;;;;4994551;28;20464;-76
2021/05/27 05:59:22;;;;;;;4.57;1.20;;;10.80;99.90;;;;;;4994154;28;20142;-79
2021/05/27 06:01:50;;;;;;;2.78;1.10;;;10.90;99.90;;;;;;4994118;28;20082;-77
2021/05/27 06:04:17;;;;;;;3.20;1.40;;;10.90;99.90;;;;;;4994217;28;20588;-78
2021/05/27 06:06:44;;;;;;;2.78;1.30;;;10.90;99.90;;;;;;4994622;28;20074;-78
2021/05/27 06:09:12;;;;;;;2.95;1.30;;;11.00;99.90;;;;;;4994220;28;20130;-78
2021/05/27 06:11:38;;;;;;;2.53;1.30;;;11.00;99.90;;;;;;4994302;28;20043;-77
2021/05/27 06:14:05;;;;;;;2.40;1.00;;;11.10;99.90;;;;;;4994286;28;20078;-77
2021/05/27 06:16:32;;;;;;;3.13;1.40;;;11.00;99.90;;;;;;4994362;28;20109;-78
2021/05/27 06:18:58;;;;;;;2.63;1.10;;;11.20;99.90;;;;;;4995166;28;20495;-78
2021/05/27 06:21:25;;;;;;;8.15;1.20;;;11.30;99.90;;;;;;4994492;28;20554;-78
2021/05/27 06:23:52;;;;;;;3.35;1.15;;;11.30;99.90;;;;;;4993997;28;20511;-79
2021/05/27 06:26:19;;;;;;;3.28;1.15;;;11.30;99.70;;;;;;4994353;28;20082;-79
2021/05/27 06:28:46;;;;;;;3.10;1.02;;;11.30;99.70;;;;;;4994359;28;20050;-77
2021/05/27 06:31:13;;;;;;;2.30;1.00;;;11.30;99.70;;;;;;4996004;28;20070;-78
2021/05/27 06:33:40;;;;;;;3.60;1.30;;;11.30;99.90;;;;;;4995057;28;20507;-78
2021/05/27 06:36:07;;;;;;;3.65;1.13;;;11.40;99.60;;;;;;4994024;28;20085;-77
2021/05/27 06:38:34;;;;;;;2.13;1.10;;;11.40;99.70;;;;;;4994065;28;20703;-77
2021/05/27 06:41:01;;;;;;;2.35;1.10;;;11.50;99.80;;;;;;4993791;28;20512;-76
2021/05/27 06:43:29;;;;;;;2.88;1.10;;;11.50;99.90;;;;;;4993744;28;20051;-79
2021/05/27 06:45:57;;;;;;;2.97;1.30;;;11.60;99.70;;;;;;5001705;28;20050;-79
2021/05/27 06:48:23;;;;;;;2.08;1.00;;;11.60;99.40;;;;;;5002769;28;20093;-78
2021/05/27 06:50:51;;;;;;;2.50;1.10;;;11.70;99.50;;;;;;5002793;28;20046;-78
2021/05/27 06:53:17;;;;;;;4.53;1.73;;;11.60;99.60;;;;;;5003438;28;20082;-78
2021/05/27 06:55:46;;;;;;;3.10;1.40;;;11.80;99.30;;;;;;5005212;28;20062;-77
2021/05/27 06:58:13;;;;;;;2.83;1.10;;;11.80;99.00;;;;;;5004125;28;20500;-77
2021/05/27 07:00:41;;;;;;;2.70;1.17;;;11.90;98.60;;;;;;5002986;28;20050;-76
2021/05/27 07:03:08;;;;;;;2.45;1.10;;;11.80;98.70;;;;;;4998727;28;20070;-78
2021/05/27 07:05:36;;;;;;;3.53;1.27;;;11.90;98.20;;;;;;4997867;28;20507;-78
2021/05/27 07:08:06;;;;;;;2.70;1.10;;;11.90;98.10;;;;;;4995226;28;20058;-79
2021/05/27 07:10:33;;;;;;;2.47;1.20;;;11.80;98.20;;;;;;4993663;28;20043;-77
2021/05/27 07:13:02;;;;;;;3.60;1.20;;;11.90;98.10;;;;;;4994375;28;20050;-78
2021/05/27 07:15:30;;;;;;;2.10;0.95;;;11.80;97.50;;;;;;5004180;28;20042;-78
2021/05/27 07:17:58;;;;;;;3.47;1.10;;;11.90;97.50;;;;;;5002239;28;20058;-77
2021/05/27 07:20:27;;;;;;;3.65;1.10;;;12.00;97.90;;;;;;5003469;28;20090;-79
2021/05/27 07:22:55;;;;;;;3.30;1.00;;;12.10;97.20;;;;;;5009360;28;20050;-77
2021/05/27 07:25:23;;;;;;;2.35;1.00;;;12.10;97.20;;;;;;5003641;28;20057;-78
2021/05/27 07:27:51;;;;;;;2.95;1.00;;;12.20;97.10;;;;;;4997802;28;20404;-79
2021/05/27 07:30:19;;;;;;;3.17;1.08;;;12.30;97.00;;;;;;5005256;28;20053;-77
2021/05/27 07:32:47;;;;;;;2.05;0.93;;;12.40;96.80;;;;;;5008400;28;20081;-76
2021/05/27 07:35:15;;;;;;;2.47;1.10;;;12.40;96.20;;;;;;5010025;28;20488;-77
2021/05/27 07:37:42;;;;;;;2.88;1.20;;;12.50;96.00;;;;;;4985799;28;20077;-77
2021/05/27 07:40:10;;;;;;;2.90;1.10;;;12.40;95.20;;;;;;4984548;28;20073;-75
2021/05/27 07:42:37;;;;;;;2.60;1.10;;;12.60;95.00;;;;;;5006561;28;20058;-76
2021/05/27 07:45:07;;;;;;;3.30;0.95;;;12.60;95.10;;;;;;4986395;28;20531;-77
2021/05/27 07:47:34;;;;;;;3.47;0.80;;;12.70;95.20;;;;;;4996730;28;20468;-77
2021/05/27 07:50:01;;;;;;;3.88;1.15;;;12.80;95.50;;;;;;4996913;28;20050;-78
2021/05/27 07:52:29;;;;;;;2.20;0.90;;;12.90;95.00;;;;;;4996204;28;20078;-78
2021/05/27 07:54:56;;;;;;;2.33;1.00;;;13.00;94.30;;;;;;4996664;28;20082;-77
2021/05/27 07:57:23;;;;;;;2.85;1.20;;;13.10;93.40;;;;;;4996535;28;20052;-77
2021/05/27 07:59:50;;;;;;;2.53;0.93;;;13.10;92.60;;;;;;4996759;28;20141;-77
2021/05/27 08:02:16;;;;;;;1.90;0.98;;;13.10;93.40;;;;;;4996830;28;20078;-76
2021/05/27 08:04:43;;;;;;;1.73;0.80;;;13.20;92.30;;;;;;4996631;28;20082;-78
2021/05/27 08:07:10;;;;;;;2.65;0.90;;;13.20;92.40;;;;;;4996750;28;20097;-77
2021/05/27 08:09:38;;;;;;;2.25;0.70;;;13.20;92.60;;;;;;4996792;28;20073;-78
2021/05/27 08:12:07;;;;;;;2.30;0.90;;;13.30;92.90;;;;;;4996556;28;20057;-77
2021/05/27 08:14:33;;;;;;;3.20;0.90;;;13.40;92.80;;;;;;4996697;28;20058;-77
2021/05/27 08:17:00;;;;;;;2.60;0.90;;;13.50;92.40;;;;;;4996867;28;20483;-79
2021/05/27 08:19:27;;;;;;;2.42;1.00;;;13.60;92.00;;;;;;4996399;28;20084;-78
2021/05/27 08:21:54;;;;;;;1.77;0.80;;;13.50;91.60;;;;;;4996315;28;20131;-77
2021/05/27 08:24:21;;;;;;;3.35;0.90;;;13.50;91.20;;;;;;4996337;28;20050;-78
2021/05/27 08:26:48;;;;;;;2.35;0.95;;;13.50;92.00;;;;;;4996579;28;20091;-78
2021/05/27 08:29:15;;;;;;;2.70;1.00;;;13.50;91.70;;;;;;4996814;28;20086;-77
2021/05/27 08:31:42;;;;;;;4.80;0.82;;;13.50;91.60;;;;;;4996679;28;20046;-77
2021/05/27 08:34:09;;;;;;;3.05;0.93;;;13.50;90.90;;;;;;4996332;28;20142;-78
2021/05/27 08:36:36;;;;;;;2.25;0.77;;;13.50;90.80;;;;;;4996654;28;20074;-79
2021/05/27 08:39:04;;;;;;;2.10;0.90;;;13.40;90.50;;;;;;4996528;28;20460;-78
2021/05/27 08:41:31;;;;;;;2.05;1.10;;;13.40;90.50;;;;;;4998862;28;20444;-77
2021/05/27 08:43:58;;;;;;;3.38;1.13;;;13.40;90.70;;;;;;4995926;28;20105;-78
2021/05/27 08:46:25;;;;;;;2.22;0.75;;;13.50;90.70;;;;;;4995557;28;20089;-77
2021/05/27 08:48:51;;;;;;;2.17;0.80;;;13.60;90.50;;;;;;4995726;28;20086;-78
2021/05/27 08:51:19;;;;;;;3.88;1.08;;;13.60;90.20;;;;;;4995803;28;20078;-77
2021/05/27 08:53:45;;;;;;;2.25;0.90;;;13.60;89.80;;;;;;4995981;28;20046;-77
2021/05/27 08:56:12;;;;;;;3.15;0.90;;;13.70;90.00;;;;;;4995681;28;20085;-78
2021/05/27 08:58:39;;;;;;;2.80;0.88;;;13.80;89.70;;;;;;4995951;28;20129;-78
2021/05/27 09:01:08;;;;;;;3.00;0.93;;;13.90;90.20;;;;;;4995368;28;20054;-77
2021/05/27 09:03:42;;;;;;;2.53;0.80;;;14.00;90.20;;;;;;4996019;28;20081;-77
2021/05/27 09:06:10;;;;;;;5.03;1.02;;;14.10;88.50;;;;;;5000040;28;20046;-77
2021/05/27 09:08:38;;;;;;;3.42;1.00;;;14.00;88.50;;;;;;5005697;28;20527;-77
2021/05/27 09:11:07;;;;;;;2.50;0.80;;;14.00;88.70;;;;;;5005600;28;20088;-77
2021/05/27 09:13:34;;;;;;;3.08;1.17;;;14.00;88.00;;;;;;5005480;28;20042;-76
2021/05/27 09:16:11;;;;;;;2.63;0.80;;;14.10;88.30;;;;;;4998536;28;20515;-78
2021/05/27 09:18:39;;;;;;;2.95;1.00;;;14.30;89.20;;;;;;4995665;28;20081;-80
2021/05/27 09:21:08;;;;;;;2.45;0.75;;;14.40;87.30;;;;;;4995275;28;20046;-78
2021/05/27 09:23:36;;;;;;;2.45;0.88;;;14.50;87.30;;;;;;4995068;28;20079;-77
2021/05/27 09:26:10;;;;;;;2.88;0.80;;;14.60;87.50;;;;;;4995106;28;20046;-77
2021/05/27 09:28:37;;;;;;;2.08;0.82;;;14.60;86.80;;;;;;4995414;28;20050;-77
2021/05/27 09:31:08;;;;;;;2.67;0.95;;;14.60;82.60;;;;;;4995085;28;20089;-77
2021/05/27 09:33:37;;;;;;;1.75;0.70;;;14.60;82.10;;;;;;4995182;28;20412;-78
2021/05/27 09:36:07;;;;;;;1.85;0.80;;;14.60;81.60;;;;;;4994839;28;20080;-76
2021/05/27 09:38:35;;;;;;;1.90;0.70;;;14.70;82.30;;;;;;4994657;28;20544;-78
2021/05/27 09:41:18;;;;;;;2.22;0.70;;;14.80;80.40;;;;;;4994616;28;20074;-79
2021/05/27 09:43:49;;;;;;;1.90;0.70;;;14.90;81.40;;;;;;4994844;28;20407;-79
2021/05/27 09:46:17;;;;;;;1.98;0.80;;;14.90;79.50;;;;;;4994886;28;20090;-79
2021/05/27 09:48:44;;;;;;;3.65;1.00;;;14.90;75.60;;;;;;4994797;28;20081;-78
2021/05/27 09:51:12;;;;;;;3.50;1.02;;;14.90;77.20;;;;;;4994545;28;20054;-79
2021/05/27 09:53:38;;;;;;;2.90;1.02;;;14.90;78.10;;;;;;4994884;28;20046;-77
2021/05/27 09:56:06;;;;;;;2.47;0.90;;;14.90;74.90;;;;;;4994569;28;20088;-78
2021/05/27 09:58:33;;;;;;;3.10;0.90;;;15.00;74.50;;;;;;4994673;28;20090;-80
2021/05/27 10:01:08;;;;;;;2.42;0.80;;;15.10;73.30;;;;;;4995319;28;20201;-78
2021/05/27 10:03:38;;;;;;;2.20;0.88;;;15.10;74.90;;;;;;4994436;28;20120;-78
2021/05/27 10:06:07;;;;;;;3.03;0.80;;;15.00;76.10;;;;;;4994356;28;20053;-78
2021/05/27 10:08:50;;;;;;;3.45;1.02;;;14.90;76.20;;;;;;4994542;28;20108;-77
2021/05/27 10:11:17;;;;;;;2.00;0.88;;;14.90;75.50;;;;;;4994492;28;20133;-78
2021/05/27 10:13:45;;;;;;;2.15;0.80;;;14.90;77.10;;;;;;4994363;28;20132;-78
2021/05/27 10:16:14;;;;;;;3.30;0.73;;;15.10;77.20;;;;;;4993913;28;20407;-78
2021/05/27 10:18:42;;;;;;;3.00;0.98;;;15.20;76.70;;;;;;4994139;28;20078;-78
2021/05/27 10:21:11;;;;;;;3.72;0.80;;;15.30;73.90;;;;;;4994134;28;20134;-79
2021/05/27 10:23:39;;;;;;;2.78;0.60;;;15.30;70.50;;;;;;4994154;28;20060;-79
2021/05/27 10:26:06;;;;;;;1.67;0.70;;;15.30;69.60;;;;;;4997073;28;20132;-77
2021/05/27 10:28:34;;;;;;;2.47;0.70;;;15.40;70.60;;;;;;4994300;28;20053;-78
2021/05/27 10:31:02;;;;;;;8.75;4.97;;;15.40;71.90;;;;;;4994399;28;20046;-77
2021/05/27 10:33:37;;;;;;;21.42;10.20;;;15.50;71.40;;;;;;4994313;28;20141;-78
2021/05/27 10:36:06;;;;;;;4.28;1.58;;;15.50;72.00;;;;;;4994291;28;20081;-77
2021/05/27 10:38:50;;;;;;;4.10;1.35;;;15.50;69.80;;;;;;4994118;28;20125;-75
2021/05/27 10:41:20;;;;;;;3.07;1.03;;;15.40;70.20;;;;;;4993912;28;20559;-77
2021/05/27 10:44:08;;;;;;;1.70;0.80;;;15.40;69.40;;;;;;4994094;28;20077;-78
2021/05/27 10:47:17;;;;;;;2.10;0.80;;;15.40;68.10;;;;;;4994352;28;20400;-77
2021/05/27 10:49:55;;;;;;;2.08;0.70;;;15.30;68.40;;;;;;4994026;28;20050;-78
2021/05/27 10:52:38;;;;;;;1.58;0.60;;;15.30;69.30;;;;;;4994367;28;20136;-78
2021/05/27 10:55:39;;;;;;;2.72;0.80;;;15.30;70.80;;;;;;4994012;28;20141;-79
2021/05/27 10:58:06;;;;;;;2.00;0.70;;;15.20;71.70;;;;;;4994513;28;20141;-78
2021/05/27 11:00:53;;;;;;;2.53;0.90;;;15.20;72.10;;;;;;4993942;28;20058;-77
2021/05/27 11:03:46;;;;;;;1.90;0.70;;;15.20;71.90;;;;;;4994203;28;20046;-78
2021/05/27 11:06:22;;;;;;;2.30;0.75;;;15.10;72.50;;;;;;4993908;28;20152;-75
2021/05/27 11:08:49;;;;;;;2.22;0.73;;;15.10;71.60;;;;;;4994486;28;20046;-77
2021/05/27 11:11:36;;;;;;;2.92;0.90;;;15.10;72.00;;;;;;4993925;28;20061;-79
2021/05/27 11:14:19;;;;;;;3.20;0.60;;;15.10;71.90;;;;;;4993480;28;20555;-78
2021/05/27 11:17:18;;;;;;;2.45;0.80;;;15.10;71.80;;;;;;4993559;28;20058;-79
2021/05/27 11:19:52;;;;;;;2.95;1.00;;;15.10;72.00;;;;;;4914885;29;20056;-78
2021/05/27 11:22:50;;;;;;;3.28;0.90;;;15.00;71.90;;;;;;4980369;28;20055;-78
2021/05/27 11:25:35;;;;;;;2.13;0.93;;;15.00;72.10;;;;;;4993966;28;20047;-79
2021/05/27 11:28:38;;;;;;;1.38;0.68;;;15.00;72.20;;;;;;4994193;28;20523;-80
2021/05/27 11:31:06;;;;;;;3.10;0.80;;;15.00;71.90;;;;;;4993831;28;20053;-76
2021/05/27 11:33:40;;;;;;;1.63;0.98;;;15.10;71.80;;;;;;4993868;28;20125;-77
2021/05/27 11:36:28;;;;;;;2.28;0.77;;;15.10;72.90;;;;;;4994109;28;20046;-77
2021/05/27 11:38:56;;;;;;;1.63;0.70;;;15.20;72.30;;;;;;4979938;28;20132;-77
2021/05/27 11:41:23;;;;;;;2.53;1.02;;;15.20;72.20;;;;;;4993774;28;20089;-76
2021/05/27 11:43:57;;;;;;;2.13;0.80;;;15.20;71.90;;;;;;4993375;28;20496;-76
2021/05/27 11:46:28;;;;;;;2.00;0.80;;;15.30;72.00;;;;;;4993906;28;20062;-77
2021/05/27 11:48:59;;;;;;;2.22;0.90;;;15.40;71.20;;;;;;4993895;28;20085;-76
2021/05/27 11:51:34;;;;;;;2.22;0.90;;;15.50;73.20;;;;;;4994613;28;20043;-76
2021/05/27 11:54:04;;;;;;;2.53;0.80;;;15.60;72.90;;;;;;5002705;28;20069;-78
2021/05/27 11:56:43;;;;;;;2.60;0.82;;;15.70;68.50;;;;;;4993653;28;20455;-75
2021/05/27 11:59:13;;;;;;;4.13;0.80;;;15.60;68.00;;;;;;4994436;28;20551;-77
2021/05/27 12:01:42;;;;;;;2.05;0.73;;;15.70;70.10;;;;;;4996603;28;20046;-76
2021/05/27 12:04:13;;;;;;;1.77;0.77;;;15.70;69.50;;;;;;4997228;28;20081;-77
2021/05/27 12:06:56;;;;;;;7.25;0.90;;;15.70;68.50;;;;;;4996996;28;20130;-77
2021/05/27 12:09:35;;;;;;;1.67;0.70;;;15.80;67.90;;;;;;4996788;28;20153;-78
2021/05/27 12:12:19;;;;;;;2.05;0.80;;;15.70;66.70;;;;;;4997105;28;20054;-79
2021/05/27 12:14:50;;;;;;;3.33;0.90;;;15.80;68.50;;;;;;4996948;28;20496;-77
2021/05/27 12:17:23;;;;;;;3.05;0.80;;;15.80;66.30;;;;;;4997027;28;20054;-75
2021/05/27 12:19:52;;;;;;;2.90;0.88;;;15.90;66.50;;;;;;4996525;28;20129;-77
2021/05/27 12:22:21;;;;;;;2.60;0.70;;;15.90;67.20;;;;;;4997397;28;20129;-77
2021/05/27 12:24:48;;;;;;;2.03;0.75;;;16.00;68.10;;;;;;4998909;28;20580;-78
2021/05/27 12:27:15;;;;;;;1.75;0.70;;;16.20;68.70;;;;;;4995626;28;20082;-79
2021/05/27 12:29:42;;;;;;;2.58;0.95;;;16.30;68.00;;;;;;4996862;28;20054;-78
2021/05/27 12:32:08;;;;;;;8.05;2.80;;;16.50;67.60;;;;;;4996748;28;20471;-76
2021/05/27 12:34:39;;;;;;;4.10;1.55;;;16.80;66.60;;;;;;4996673;28;20089;-78
2021/05/27 12:37:07;;;;;;;5.40;1.00;;;16.90;66.20;;;;;;4996516;28;20050;-79
2021/05/27 12:39:39;;;;;;;1.42;0.77;;;17.10;65.10;;;;;;4996725;28;20050;-75
2021/05/27 12:42:09;;;;;;;2.50;1.00;;;17.20;63.50;;;;;;4996909;28;20477;-77
2021/05/27 12:44:42;;;;;;;1.58;0.68;;;17.10;65.30;;;;;;4996382;28;20137;-78
2021/05/27 12:47:18;;;;;;;2.03;0.80;;;17.00;64.60;;;;;;4996071;28;20046;-77
2021/05/27 12:49:46;;;;;;;2.03;0.80;;;17.00;65.00;;;;;;4995816;28;20053;-78
2021/05/27 12:52:37;;;;;;;3.00;0.77;;;16.90;64.10;;;;;;4996212;28;20054;-79
2021/05/27 12:55:09;;;;;;;1.30;0.60;;;16.80;63.00;;;;;;4996099;28;20503;-78
2021/05/27 12:57:51;;;;;;;3.28;0.70;;;16.80;62.60;;;;;;4996509;28;20050;-80
2021/05/27 13:00:19;;;;;;;2.15;0.60;;;16.90;64.00;;;;;;4995870;28;20519;-78
2021/05/27 13:02:45;;;;;;;2.00;0.70;;;17.10;61.50;;;;;;4995883;28;20082;-78
2021/05/27 13:05:17;;;;;;;2.15;0.90;;;17.30;57.10;;;;;;4994485;28;20507;-76
2021/05/27 13:07:58;;;;;;;2.28;0.77;;;17.20;58.40;;;;;;4995567;28;20059;-79